Aviation Digital Data Service (ADDS)

Output produced by METARs form (1839 UTC 27 August 2016)
found at http://aviationweather.gov/adds/metars/
 
KIAG 271723Z 2718/2818 07006KT P6SM SCT140 BKN250 
     FM280100 11006KT P6SM SCT100 OVC250 
     FM280600 16004KT P6SM BKN090 
     FM280900 19006KT P6SM VCSH BKN060 
     FM281600 24012G18KT P6SM BKN100